createdAt,value
2023-05-10T00:00:16.576Z,3.35
2023-05-10T00:04:29.801Z,3.60
2023-05-10T00:08:42.364Z,3.58
2023-05-10T00:12:54.767Z,4.35
2023-05-10T00:17:07.170Z,4.65
2023-05-10T00:21:19.512Z,3.80
2023-05-10T00:25:31.919Z,3.00
2023-05-10T00:29:45.805Z,3.42
2023-05-10T00:33:58.173Z,3.50
2023-05-10T00:38:10.341Z,2.33
2023-05-10T00:42:23.688Z,3.00
2023-05-10T00:46:38.315Z,2.55
2023-05-10T00:50:51.035Z,2.80
2023-05-10T00:55:05.442Z,2.70
2023-05-10T00:59:19.016Z,2.83
2023-05-10T01:03:32.128Z,2.10
2023-05-10T01:07:44.355Z,2.28
2023-05-10T01:11:57.823Z,2.35
2023-05-10T01:16:10.512Z,2.40
2023-05-10T01:20:24.449Z,2.60
2023-05-10T01:24:39.743Z,2.50
2023-05-10T01:29:30.653Z,2.53
2023-05-10T01:33:56.866Z,3.00
2023-05-10T01:38:15.028Z,2.88
2023-05-10T01:42:34.942Z,2.92
2023-05-10T01:46:54.205Z,2.60
2023-05-10T01:51:08.164Z,2.80
2023-05-10T01:55:22.848Z,2.88
2023-05-10T01:59:40.406Z,2.85
2023-05-10T02:03:54.317Z,2.95
2023-05-10T02:08:08.180Z,2.45
2023-05-10T02:12:25.572Z,2.53
2023-05-10T02:16:40.321Z,2.40
2023-05-10T02:20:55.173Z,2.30
2023-05-10T02:25:10.325Z,2.63
2023-05-10T02:29:24.953Z,2.53
2023-05-10T02:33:40.780Z,2.60
2023-05-10T02:37:54.915Z,2.60
2023-05-10T02:42:07.927Z,2.33
2023-05-10T02:46:21.286Z,2.58
2023-05-10T02:50:35.194Z,2.30
2023-05-10T02:54:52.281Z,2.50
2023-05-10T02:59:04.755Z,2.60
2023-05-10T03:03:17.400Z,2.30
2023-05-10T03:07:30.076Z,2.90
2023-05-10T03:12:25.045Z,2.40
2023-05-10T03:16:45.027Z,2.58
2023-05-10T03:21:06.531Z,2.78
2023-05-10T03:25:23.458Z,2.38
2023-05-10T03:29:38.354Z,2.05
2023-05-10T03:33:52.218Z,2.28
2023-05-10T03:38:09.929Z,2.30
2023-05-10T03:42:22.395Z,2.20
2023-05-10T03:46:34.918Z,2.33
2023-05-10T03:50:50.598Z,1.83
2023-05-10T03:55:04.943Z,2.15
2023-05-10T03:59:17.430Z,1.67
2023-05-10T04:03:29.947Z,2.10
2023-05-10T04:07:45.493Z,2.00
2023-05-10T04:11:57.826Z,2.00
2023-05-10T04:16:10.556Z,1.98
2023-05-10T04:20:22.945Z,1.90
2023-05-10T04:24:35.420Z,2.40
2023-05-10T04:28:47.979Z,1.80
2023-05-10T04:33:00.481Z,1.77
2023-05-10T04:37:13.019Z,1.80
2023-05-10T04:41:26.519Z,2.10
2023-05-10T04:45:38.875Z,2.17
2023-05-10T04:49:51.369Z,2.30
2023-05-10T04:54:06.381Z,2.15
2023-05-10T04:58:19.100Z,2.00
2023-05-10T05:02:32.020Z,1.60
2023-05-10T05:06:44.605Z,2.00
2023-05-10T05:10:57.063Z,1.67
2023-05-10T05:15:10.924Z,1.75
2023-05-10T05:19:23.962Z,1.80
2023-05-10T05:23:36.322Z,1.75
2023-05-10T05:27:48.772Z,1.45
2023-05-10T05:32:01.496Z,1.73
2023-05-10T05:36:14.065Z,2.22
2023-05-10T05:40:26.571Z,1.60
2023-05-10T05:44:39.575Z,1.50
2023-05-10T05:48:51.980Z,1.80
2023-05-10T05:53:04.505Z,1.63
2023-05-10T06:01:29.373Z,1.80
2023-05-10T06:05:41.724Z,2.80
2023-05-10T06:09:54.068Z,2.92
2023-05-10T06:14:08.331Z,2.63
2023-05-10T06:18:20.642Z,2.85
2023-05-10T06:22:33.105Z,2.50
2023-05-10T06:26:45.523Z,2.70
2023-05-10T06:30:57.916Z,2.90
2023-05-10T06:35:12.830Z,2.70
2023-05-10T06:39:25.337Z,2.40
2023-05-10T06:43:41.198Z,2.72
2023-05-10T06:47:54.744Z,2.10
2023-05-10T06:52:07.137Z,2.30
2023-05-10T06:56:19.479Z,2.25
2023-05-10T07:00:32.108Z,3.65
2023-05-10T07:04:44.592Z,3.10
2023-05-10T07:08:57.028Z,2.25
2023-05-10T07:13:09.516Z,2.45
2023-05-10T07:17:22.242Z,2.25
2023-05-10T07:21:34.758Z,2.00
2023-05-10T07:25:52.714Z,2.22
2023-05-10T07:30:05.552Z,1.95
2023-05-10T07:34:20.141Z,1.92
2023-05-10T07:38:32.486Z,1.80
2023-05-10T07:42:45.837Z,1.52
2023-05-10T07:46:58.238Z,0.93
2023-05-10T07:51:10.983Z,1.48
2023-05-10T07:55:32.668Z,1.20
2023-05-10T07:59:46.135Z,1.33
2023-05-10T08:03:58.529Z,1.30
2023-05-10T08:08:11.072Z,1.35
2023-05-10T08:12:23.555Z,1.73
2023-05-10T08:16:36.490Z,1.20
2023-05-10T08:20:50.255Z,1.40
2023-05-10T08:25:02.724Z,1.30
2023-05-10T08:29:15.957Z,1.63
2023-05-10T08:33:28.357Z,1.48
2023-05-10T08:37:40.933Z,1.10
2023-05-10T08:42:01.284Z,0.95
2023-05-10T08:46:21.350Z,1.27
2023-05-10T08:50:38.757Z,1.13
2023-05-10T08:54:51.447Z,0.93
2023-05-10T08:59:10.575Z,0.80
2023-05-10T09:03:23.038Z,1.00
2023-05-10T09:07:36.367Z,1.00
2023-05-10T09:11:49.533Z,0.90
2023-05-10T09:16:19.888Z,1.10
2023-05-10T09:20:34.016Z,0.80
2023-05-10T09:24:46.517Z,0.85
2023-05-10T09:29:00.866Z,1.10
2023-05-10T09:33:13.363Z,0.60
2023-05-10T09:37:31.380Z,0.80
2023-05-10T09:41:44.029Z,1.00
2023-05-10T09:45:57.105Z,1.33
2023-05-10T09:50:11.416Z,1.00
2023-05-10T09:54:25.078Z,0.90
2023-05-10T09:58:41.964Z,0.90
2023-05-10T10:03:00.361Z,0.98
2023-05-10T10:07:13.205Z,1.10
2023-05-10T10:11:25.898Z,0.80
2023-05-10T10:15:38.686Z,1.10
2023-05-10T10:19:51.406Z,0.93
2023-05-10T10:24:06.578Z,1.02
2023-05-10T10:28:48.566Z,1.10
2023-05-10T10:33:30.119Z,1.30
2023-05-10T10:37:46.025Z,0.80
2023-05-10T10:42:00.355Z,0.80
2023-05-10T10:46:18.707Z,0.60
2023-05-10T10:50:31.518Z,0.50
2023-05-10T10:54:53.337Z,0.80
2023-05-10T10:59:06.558Z,0.60
2023-05-10T11:03:22.357Z,1.08
2023-05-10T11:07:34.959Z,0.68
2023-05-10T11:11:53.460Z,0.90
2023-05-10T11:16:41.919Z,0.63
2023-05-10T11:20:59.081Z,0.90
2023-05-10T11:25:12.183Z,2.83
2023-05-10T11:29:27.519Z,3.53
2023-05-10T11:33:51.628Z,3.55
2023-05-10T11:38:06.677Z,3.38
2023-05-10T11:42:19.135Z,3.92
2023-05-10T11:46:31.514Z,3.00
2023-05-10T11:50:45.416Z,3.10
2023-05-10T11:54:59.485Z,3.10
2023-05-10T11:59:12.009Z,2.90
2023-05-10T12:03:24.498Z,3.95
2023-05-10T12:07:37.090Z,4.35
2023-05-10T12:11:49.463Z,3.70
2023-05-10T12:16:14.451Z,4.22
2023-05-10T12:20:29.238Z,4.15
2023-05-10T12:24:41.903Z,4.20
2023-05-10T12:29:13.279Z,4.53
2023-05-10T12:33:25.997Z,4.75
2023-05-10T12:37:40.348Z,5.00
2023-05-10T12:41:53.385Z,4.75
2023-05-10T12:46:10.344Z,4.55
2023-05-10T12:50:22.796Z,4.80
2023-05-10T12:54:36.889Z,4.72
2023-05-10T12:58:49.977Z,5.60
2023-05-10T13:03:02.441Z,5.55
2023-05-10T13:07:14.907Z,4.60
2023-05-10T13:11:27.572Z,5.43
2023-05-10T13:15:39.846Z,5.50
2023-05-10T13:19:52.164Z,5.18
2023-05-10T13:24:04.560Z,4.72
2023-05-10T13:28:16.941Z,4.78
2023-05-10T13:32:29.462Z,3.70
2023-05-10T13:36:42.385Z,3.90
2023-05-10T13:40:54.750Z,3.75
2023-05-10T13:45:07.629Z,3.83
2023-05-10T13:49:20.117Z,3.33
2023-05-10T13:53:32.469Z,3.70
2023-05-10T13:57:44.874Z,3.65
2023-05-10T14:01:57.257Z,3.83
2023-05-10T14:06:09.912Z,3.72
2023-05-10T14:10:22.308Z,4.10
2023-05-10T14:14:34.733Z,4.20
2023-05-10T14:18:47.643Z,3.78
2023-05-10T14:23:00.023Z,4.10
2023-05-10T14:27:13.078Z,3.30
2023-05-10T14:31:26.821Z,3.58
2023-05-10T14:35:39.303Z,3.50
2023-05-10T14:39:51.631Z,3.47
2023-05-10T14:44:04.723Z,3.53
2023-05-10T14:48:18.618Z,4.13
2023-05-10T14:52:32.214Z,3.85
2023-05-10T14:56:46.575Z,3.28
2023-05-10T15:00:58.967Z,3.50
2023-05-10T15:05:12.201Z,3.40
2023-05-10T15:09:25.012Z,3.40
2023-05-10T15:13:37.327Z,3.80
2023-05-10T15:17:49.942Z,5.03
2023-05-10T15:22:03.385Z,5.57
2023-05-10T15:26:15.946Z,5.30
2023-05-10T15:30:28.422Z,6.10
2023-05-10T15:34:40.753Z,6.50
2023-05-10T15:38:53.125Z,7.63
2023-05-10T15:43:06.542Z,8.45
2023-05-10T15:47:18.951Z,9.55
2023-05-10T15:51:31.283Z,9.85
2023-05-10T15:55:44.075Z,9.85
2023-05-10T15:59:56.663Z,11.63
2023-05-10T16:04:09.055Z,11.40
2023-05-10T16:08:22.786Z,12.02
2023-05-10T16:12:35.250Z,12.80
2023-05-10T16:16:47.919Z,11.65
2023-05-10T16:21:01.004Z,11.23
2023-05-10T16:25:13.747Z,10.93
2023-05-10T16:29:26.519Z,11.85
2023-05-10T16:33:39.344Z,12.93
2023-05-10T16:37:54.059Z,12.93
2023-05-10T16:42:06.504Z,11.40
2023-05-10T16:46:18.942Z,13.30
2023-05-10T16:50:31.446Z,14.55
2023-05-10T16:54:44.398Z,14.63
2023-05-10T16:58:56.961Z,11.55
2023-05-10T17:03:09.337Z,13.02
2023-05-10T17:07:23.012Z,13.38
2023-05-10T17:11:36.617Z,12.25
2023-05-10T17:15:50.251Z,12.80
2023-05-10T17:20:03.177Z,11.73
2023-05-10T17:24:15.961Z,11.60
2023-05-10T17:28:29.290Z,12.25
2023-05-10T17:32:41.927Z,10.98
2023-05-10T17:36:54.516Z,11.77
2023-05-10T17:41:07.778Z,12.40
2023-05-10T17:45:20.484Z,12.18
2023-05-10T17:49:34.731Z,11.88
2023-05-10T17:53:48.642Z,10.95
2023-05-10T17:58:01.248Z,11.80
2023-05-10T18:02:14.299Z,12.30
2023-05-10T18:06:27.168Z,12.93
2023-05-10T18:10:41.318Z,15.02
2023-05-10T18:14:54.170Z,15.65
2023-05-10T18:19:06.751Z,18.23
2023-05-10T18:23:19.197Z,20.52
2023-05-10T18:27:32.206Z,18.92
2023-05-10T18:31:44.801Z,18.92
2023-05-10T18:35:57.382Z,18.65
2023-05-10T18:40:12.899Z,19.38
2023-05-10T18:44:27.063Z,20.00
2023-05-10T18:48:41.208Z,19.25
2023-05-10T18:52:53.877Z,14.10
2023-05-10T18:57:06.350Z,12.10
2023-05-10T19:01:18.850Z,14.40
2023-05-10T19:05:32.486Z,14.82
2023-05-10T19:09:45.022Z,15.48
2023-05-10T19:13:57.322Z,19.48
2023-05-10T19:18:09.996Z,19.73
2023-05-10T19:22:35.977Z,19.02
2023-05-10T19:26:56.559Z,9.30
2023-05-10T19:31:09.072Z,9.40
2023-05-10T19:35:21.934Z,7.65
2023-05-10T19:39:34.275Z,5.40
2023-05-10T19:43:46.841Z,5.00
2023-05-10T19:47:59.826Z,5.32
2023-05-10T19:52:12.502Z,5.35
2023-05-10T19:56:25.212Z,3.83
2023-05-10T20:00:38.152Z,2.92
2023-05-10T20:04:50.589Z,2.97
2023-05-10T20:09:03.017Z,3.92
2023-05-10T20:13:16.390Z,3.33
2023-05-10T20:17:28.795Z,2.70
2023-05-10T20:21:41.195Z,2.00
2023-05-10T20:25:55.058Z,2.53
2023-05-10T20:30:07.966Z,5.72
2023-05-10T20:34:20.507Z,7.28
2023-05-10T20:38:33.116Z,2.78
2023-05-10T20:42:45.521Z,2.90
2023-05-10T20:46:57.943Z,2.33
2023-05-10T20:51:10.387Z,1.50
2023-05-10T20:55:22.915Z,2.60
2023-05-10T20:59:35.369Z,2.15
2023-05-10T21:03:47.856Z,2.03
2023-05-10T21:08:00.270Z,1.58
2023-05-10T21:12:13.470Z,1.50
2023-05-10T21:16:26.314Z,1.40
2023-05-10T21:20:38.926Z,2.42
2023-05-10T21:24:51.440Z,2.97
2023-05-10T21:29:05.013Z,4.45
2023-05-10T21:33:17.669Z,3.53
2023-05-10T21:37:30.149Z,2.88
2023-05-10T21:41:43.982Z,1.70
2023-05-10T21:45:56.431Z,1.70
2023-05-10T21:50:12.320Z,1.85
2023-05-10T21:54:24.798Z,2.30
2023-05-10T21:58:37.185Z,2.00
2023-05-10T22:02:49.659Z,1.60
2023-05-10T22:07:02.036Z,1.02
2023-05-10T22:11:14.475Z,1.23
2023-05-10T22:15:27.416Z,1.20
2023-05-10T22:19:39.912Z,1.13
2023-05-10T22:23:52.177Z,1.10
2023-05-10T22:28:05.059Z,1.00
2023-05-10T22:32:17.622Z,0.80
2023-05-10T22:36:30.902Z,1.10
2023-05-10T22:40:43.391Z,1.00
2023-05-10T22:44:56.112Z,0.88
2023-05-10T22:49:08.605Z,1.13
2023-05-10T22:53:21.318Z,1.40
2023-05-10T22:57:34.283Z,1.20
2023-05-10T23:01:46.670Z,1.25
2023-05-10T23:05:59.148Z,1.50
2023-05-10T23:10:11.822Z,1.58
2023-05-10T23:14:24.525Z,1.48
2023-05-10T23:18:37.045Z,1.48
2023-05-10T23:22:49.822Z,1.50
2023-05-10T23:27:02.785Z,1.67
2023-05-10T23:31:15.324Z,1.77
2023-05-10T23:35:27.704Z,2.25
2023-05-10T23:39:40.397Z,2.10
2023-05-10T23:43:52.770Z,1.80
2023-05-10T23:48:05.312Z,2.25
2023-05-10T23:52:18.069Z,1.90
2023-05-10T23:56:30.333Z,2.58
